createdAt,value
2023-02-04T00:02:08.105Z,0.0
2023-02-04T00:07:09.112Z,0.0
2023-02-04T00:12:10.021Z,0.0
2023-02-04T00:17:10.955Z,0.0
2023-02-04T00:22:12.029Z,0.0
2023-02-04T00:27:12.972Z,0.0
2023-02-04T00:32:14.112Z,0.0
2023-02-04T00:37:15.134Z,0.0
2023-02-04T00:42:16.267Z,0.0
2023-02-04T00:47:17.496Z,0.0
2023-02-04T00:52:18.815Z,0.0
2023-02-04T00:57:20.114Z,0.0
2023-02-04T01:02:21.426Z,0.0
2023-02-04T01:07:22.387Z,0.0
2023-02-04T01:12:23.450Z,0.0
2023-02-04T01:17:24.536Z,0.0
2023-02-04T01:22:25.466Z,0.0
2023-02-04T01:27:26.389Z,0.0
2023-02-04T01:32:27.340Z,0.0
2023-02-04T01:37:28.258Z,0.0
2023-02-04T01:42:29.299Z,0.0
2023-02-04T01:47:30.189Z,0.0
2023-02-04T01:52:31.157Z,0.0
2023-02-04T01:57:32.148Z,0.0
2023-02-04T02:02:33.156Z,0.0
2023-02-04T02:07:34.181Z,0.0
2023-02-04T02:12:35.120Z,0.0
2023-02-04T02:17:36.082Z,0.0
2023-02-04T02:22:37.006Z,0.0
2023-02-04T02:27:38.066Z,0.0
2023-02-04T02:32:39.082Z,0.0
2023-02-04T02:37:40.010Z,0.0
2023-02-04T02:42:40.920Z,0.0
2023-02-04T02:47:42.127Z,0.0
2023-02-04T02:52:43.043Z,0.0
2023-02-04T02:57:43.959Z,0.0
2023-02-04T03:02:45.177Z,0.0
2023-02-04T03:07:46.122Z,0.0
2023-02-04T03:12:47.072Z,0.0
2023-02-04T03:17:47.997Z,0.0
2023-02-04T03:22:48.941Z,0.0
2023-02-04T03:27:49.877Z,0.0
2023-02-04T03:32:50.797Z,0.0
2023-02-04T03:37:51.695Z,0.0
2023-02-04T03:42:52.593Z,0.0
2023-02-04T03:47:53.481Z,0.0
2023-02-04T03:52:54.415Z,0.0
2023-02-04T03:57:55.344Z,0.0
2023-02-04T04:02:56.296Z,0.0
2023-02-04T04:07:57.253Z,0.0
2023-02-04T04:12:58.270Z,0.0
2023-02-04T04:17:59.201Z,0.0
2023-02-04T04:23:00.118Z,0.0
2023-02-04T04:28:01.085Z,0.0
2023-02-04T04:33:02.041Z,0.0
2023-02-04T04:38:03.064Z,0.0
2023-02-04T04:43:03.962Z,0.0
2023-02-04T04:48:04.991Z,0.0
2023-02-04T04:53:06.037Z,0.0
2023-02-04T04:58:07.084Z,0.0
2023-02-04T05:03:08.036Z,0.0
2023-02-04T05:08:08.924Z,0.0
2023-02-04T05:13:09.891Z,0.0
2023-02-04T05:18:10.852Z,0.0
2023-02-04T05:23:11.784Z,0.0
2023-02-04T05:28:12.882Z,0.0
2023-02-04T05:33:13.818Z,0.0
2023-02-04T05:38:14.790Z,0.0
2023-02-04T05:43:15.757Z,0.0
2023-02-04T05:48:16.711Z,0.0
2023-02-04T05:53:17.931Z,0.0
2023-02-04T05:58:19.184Z,0.4148
2023-02-04T06:03:20.409Z,0.4148
2023-02-04T06:08:21.343Z,0.0
2023-02-04T06:13:22.488Z,0.8296
2023-02-04T06:18:23.425Z,1.6592
2023-02-04T06:23:24.354Z,4.0295
2023-02-04T06:28:25.267Z,12.4856
2023-02-04T06:33:26.242Z,26.98115
2023-02-04T06:38:27.135Z,47.28595
2023-02-04T06:43:28.141Z,85.8666
2023-02-04T06:48:31.032Z,129.2791
2023-02-04T06:53:32.142Z,181.2486
2023-02-04T06:58:33.094Z,233.3474
2023-02-04T07:03:34.007Z,285.26175
2023-02-04T07:08:34.935Z,355.69155
2023-02-04T07:13:35.879Z,415.97845
2023-02-04T07:18:36.857Z,481.3368
2023-02-04T07:23:37.866Z,544.97995
2023-02-04T07:28:38.793Z,600.8039
2023-02-04T07:33:39.724Z,656.01935
2023-02-04T07:38:40.683Z,711.28995
2023-02-04T07:43:41.621Z,771.70615
2023-02-04T07:48:42.527Z,817.8664
2023-02-04T07:53:43.519Z,866.11075
2023-02-04T07:58:44.484Z,913.3777
2023-02-04T08:03:45.416Z,970.3635
2023-02-04T08:08:46.496Z,1029.00935
2023-02-04T08:13:47.424Z,1083.43185
2023-02-04T08:18:48.412Z,1134.4981
2023-02-04T08:23:49.367Z,1218.5012
2023-02-04T08:28:50.264Z,1373.3257
2023-02-04T08:33:51.231Z,1252.56375
2023-02-04T08:38:52.107Z,1298.42925
2023-02-04T08:43:53.033Z,1351.4503
2023-02-04T08:48:53.973Z,1367.9558
2023-02-04T08:53:54.942Z,1401.52015
2023-02-04T08:58:55.890Z,1841.07575
2023-02-04T09:03:56.850Z,1614.2147
2023-02-04T09:08:57.826Z,1802.78615
2023-02-04T09:13:58.790Z,2171.07915
2023-02-04T09:18:59.732Z,1776.8927
2023-02-04T09:24:00.721Z,1908.21975
2023-02-04T09:29:01.647Z,1768.11325
2023-02-04T09:34:02.618Z,1899.8282
2023-02-04T09:39:03.527Z,2253.5325
2023-02-04T09:44:04.565Z,2606.51985
2023-02-04T09:49:05.504Z,2668.48765
2023-02-04T09:54:06.417Z,38001.73465
2023-02-04T09:59:07.330Z,38013.35315
2023-02-04T10:04:08.247Z,4345.3644
2023-02-04T10:09:09.165Z,6833.49695
2023-02-04T10:14:10.076Z,4228.90735
2023-02-04T10:19:10.972Z,3321.16975
2023-02-04T10:24:11.926Z,2289.4034
2023-02-04T10:29:12.815Z,3934.94585
2023-02-04T10:34:13.759Z,5953.52925
2023-02-04T10:39:14.737Z,4050.46485
2023-02-04T10:44:15.655Z,3224.7663
2023-02-04T10:49:16.590Z,2622.6583
2023-02-04T10:54:17.797Z,2179.21025
2023-02-04T10:59:18.969Z,4014.51795
2023-02-04T11:04:20.181Z,1945.975
2023-02-04T11:09:21.131Z,1878.88615
2023-02-04T11:14:22.075Z,4250.87355
2023-02-04T11:19:23.000Z,1773.13695
2023-02-04T11:24:23.928Z,1607.7988
2023-02-04T11:29:24.904Z,2961.53985
2023-02-04T11:34:25.812Z,3872.2875
2023-02-04T11:39:26.728Z,1726.7598
2023-02-04T11:44:27.644Z,1346.4604
2023-02-04T11:49:28.570Z,1019.18205
2023-02-04T11:54:29.501Z,1334.6329
2023-02-04T11:59:30.503Z,1934.6568
2023-02-04T12:04:31.456Z,1494.49825
2023-02-04T12:09:32.408Z,967.3284
2023-02-04T12:14:33.335Z,1072.4121
2023-02-04T12:19:34.256Z,1582.8387
2023-02-04T12:24:35.240Z,2865.03165
2023-02-04T12:29:36.273Z,973.3068
2023-02-04T12:34:37.213Z,806.5519
2023-02-04T12:39:38.206Z,1057.5305
2023-02-04T12:44:39.140Z,487.20675
2023-02-04T12:49:40.027Z,586.8121
2023-02-04T12:54:40.951Z,564.1303
2023-02-04T12:59:41.910Z,833.3296
2023-02-04T13:04:42.866Z,1078.68155
2023-02-04T13:09:43.816Z,884.6869
2023-02-04T13:14:44.771Z,969.05705
2023-02-04T13:19:45.701Z,1158.9215
2023-02-04T13:24:46.753Z,1111.44925
2023-02-04T13:29:47.769Z,1080.67065
2023-02-04T13:34:48.744Z,1007.805
2023-02-04T13:39:49.673Z,1016.8412
2023-02-04T13:44:50.588Z,956.25585
2023-02-04T13:49:51.666Z,881.15965
2023-02-04T13:54:52.713Z,915.8344
2023-02-04T13:59:53.690Z,958.71625
2023-02-04T14:04:54.621Z,859.18505
2023-02-04T14:09:55.589Z,752.42415
2023-02-04T14:14:56.544Z,658.2763
2023-02-04T14:19:57.447Z,634.967
2023-02-04T14:24:58.392Z,629.7111
2023-02-04T14:29:59.400Z,518.1202
2023-02-04T14:35:00.317Z,474.66785
2023-02-04T14:40:01.577Z,511.98795
2023-02-04T14:45:02.480Z,516.96625
2023-02-04T14:50:03.409Z,485.0524
2023-02-04T14:55:04.330Z,449.2808
2023-02-04T15:00:05.628Z,423.0248
2023-02-04T15:05:06.583Z,395.4359
2023-02-04T15:10:07.502Z,348.99805
2023-02-04T15:15:08.483Z,288.2148
2023-02-04T15:20:09.394Z,247.20015
2023-02-04T15:25:10.272Z,214.6475
2023-02-04T15:30:11.278Z,190.4331
2023-02-04T15:35:12.186Z,163.0089
2023-02-04T15:40:13.114Z,124.86335
2023-02-04T15:45:14.029Z,100.6004
2023-02-04T15:50:15.068Z,77.1613
2023-02-04T15:55:16.079Z,52.7073
2023-02-04T16:00:21.984Z,33.8781
2023-02-04T16:05:22.879Z,15.0489
2023-02-04T16:10:23.783Z,8.87075
2023-02-04T16:15:24.843Z,5.0163
2023-02-04T16:20:25.780Z,1.53075
2023-02-04T16:25:26.736Z,1.3463
2023-02-04T16:30:27.683Z,0.0
2023-02-04T16:35:28.619Z,0.4148
2023-02-04T16:40:29.518Z,0.4148
2023-02-04T16:45:30.723Z,0.0
2023-02-04T16:50:32.057Z,0.0
2023-02-04T16:55:33.494Z,0.0
2023-02-04T17:00:34.813Z,0.0
2023-02-04T17:05:35.760Z,0.0
2023-02-04T17:10:36.722Z,0.0
2023-02-04T17:15:37.683Z,0.0
2023-02-04T17:20:38.966Z,0.4148
2023-02-04T17:25:39.917Z,0.0
2023-02-04T17:30:40.878Z,0.0
2023-02-04T17:35:42.033Z,0.0
2023-02-04T17:40:43.274Z,0.0
2023-02-04T17:45:44.631Z,0.0
2023-02-04T17:50:45.558Z,0.0
2023-02-04T17:55:46.909Z,0.0
2023-02-04T18:00:47.998Z,0.0
2023-02-04T18:05:49.143Z,0.0
2023-02-04T18:10:50.237Z,0.0
2023-02-04T18:15:51.389Z,0.0
2023-02-04T18:20:52.481Z,0.0
2023-02-04T18:25:53.554Z,0.0
2023-02-04T18:30:54.565Z,0.4148
2023-02-04T18:35:55.561Z,0.0
2023-02-04T18:40:56.488Z,0.0
2023-02-04T18:45:57.462Z,0.0
2023-02-04T18:50:58.436Z,0.0
2023-02-04T18:55:59.500Z,0.0
2023-02-04T19:01:00.674Z,0.0
2023-02-04T19:06:01.864Z,0.0
2023-02-04T19:11:02.871Z,0.0
2023-02-04T19:16:03.852Z,0.0
2023-02-04T19:21:05.180Z,0.0
2023-02-04T19:26:06.225Z,0.0
2023-02-04T19:31:07.405Z,0.0
2023-02-04T19:36:08.390Z,0.0
2023-02-04T19:41:09.328Z,0.4148
2023-02-04T19:46:10.270Z,0.0
2023-02-04T19:51:11.234Z,0.0
2023-02-04T19:56:12.224Z,0.0
2023-02-04T20:01:13.236Z,0.0
2023-02-04T20:06:14.297Z,0.0
2023-02-04T20:11:15.284Z,0.0
2023-02-04T20:16:16.332Z,0.0
2023-02-04T20:21:17.378Z,0.0
2023-02-04T20:26:18.698Z,0.0
2023-02-04T20:31:20.026Z,0.0
2023-02-04T20:36:21.004Z,0.0
2023-02-04T20:41:21.972Z,0.0
2023-02-04T20:46:22.977Z,0.0
2023-02-04T20:51:24.028Z,0.0
2023-02-04T20:56:24.962Z,0.0
2023-02-04T21:01:25.918Z,0.0
2023-02-04T21:06:26.897Z,0.0
2023-02-04T21:11:27.810Z,0.0
2023-02-04T21:16:28.736Z,0.0
2023-02-04T21:21:29.685Z,0.0
2023-02-04T21:26:30.635Z,0.0
2023-02-04T21:31:31.639Z,0.0
2023-02-04T21:36:32.623Z,0.0
2023-02-04T21:41:33.540Z,0.0
2023-02-04T21:46:34.543Z,0.0
2023-02-04T21:51:35.482Z,0.0
2023-02-04T21:56:36.415Z,0.0
2023-02-04T22:01:37.411Z,0.0
2023-02-04T22:06:38.345Z,0.0
2023-02-04T22:11:39.263Z,0.0
2023-02-04T22:16:40.257Z,0.0
2023-02-04T22:21:41.341Z,0.0
2023-02-04T22:26:42.362Z,0.0
2023-02-04T22:31:43.345Z,0.0
2023-02-04T22:36:44.384Z,0.0
2023-02-04T22:41:45.353Z,0.0
2023-02-04T22:46:47.536Z,0.0
2023-02-04T22:51:48.708Z,0.0
2023-02-04T22:56:49.666Z,0.0
2023-02-04T23:01:50.692Z,0.0
2023-02-04T23:06:51.664Z,0.0
2023-02-04T23:11:52.655Z,0.0
2023-02-04T23:16:53.583Z,0.0
2023-02-04T23:21:54.567Z,0.0
2023-02-04T23:26:55.692Z,0.0
2023-02-04T23:31:56.603Z,0.0
2023-02-04T23:36:57.689Z,0.0
2023-02-04T23:41:58.707Z,0.0
2023-02-04T23:46:59.653Z,0.0
2023-02-04T23:52:00.638Z,0.0
2023-02-04T23:57:01.625Z,0.0
